sensor_id;sensor_type;location;lat;lon;timestamp;temperature;humidity
9403;DHT22;4741;49.834;10.740;2024-01-30T00:01:24;-1.70;99.90
9403;DHT22;4741;49.834;10.740;2024-01-30T00:03:51;-1.80;99.90
9403;DHT22;4741;49.834;10.740;2024-01-30T00:06:18;-1.90;99.90
9403;DHT22;4741;49.834;10.740;2024-01-30T00:08:45;-1.80;99.90
9403;DHT22;4741;49.834;10.740;2024-01-30T00:11:15;-2.00;99.90
9403;DHT22;4741;49.834;10.740;2024-01-30T00:13:42;-2.10;99.90
9403;DHT22;4741;49.834;10.740;2024-01-30T00:16:19;-1.80;99.90
9403;DHT22;4741;49.834;10.740;2024-01-30T00:18:46;-2.00;99.90
9403;DHT22;4741;49.834;10.740;2024-01-30T00:21:13;-2.10;99.90
9403;DHT22;4741;49.834;10.740;2024-01-30T00:26:07;-1.90;99.90
9403;DHT22;4741;49.834;10.740;2024-01-30T00:31:00;-2.10;99.90
9403;DHT22;4741;49.834;10.740;2024-01-30T00:33:27;-2.40;99.90
9403;DHT22;4741;49.834;10.740;2024-01-30T00:35:54;-2.10;99.90
9403;DHT22;4741;49.834;10.740;2024-01-30T00:38:21;-0.90;99.90
9403;DHT22;4741;49.834;10.740;2024-01-30T00:40:47;-2.50;99.90
9403;DHT22;4741;49.834;10.740;2024-01-30T00:43:15;-2.50;99.90
9403;DHT22;4741;49.834;10.740;2024-01-30T00:45:45;-2.10;99.90
9403;DHT22;4741;49.834;10.740;2024-01-30T00:48:12;-1.80;99.90
9403;DHT22;4741;49.834;10.740;2024-01-30T00:50:39;-2.20;99.90
9403;DHT22;4741;49.834;10.740;2024-01-30T00:53:05;-2.50;99.90
9403;DHT22;4741;49.834;10.740;2024-01-30T00:55:34;-2.50;99.90
9403;DHT22;4741;49.834;10.740;2024-01-30T00:58:01;-2.30;99.90
9403;DHT22;4741;49.834;10.740;2024-01-30T01:00:28;-2.10;99.90
9403;DHT22;4741;49.834;10.740;2024-01-30T01:02:55;-2.20;99.90
9403;DHT22;4741;49.834;10.740;2024-01-30T01:05:22;-2.30;99.90
9403;DHT22;4741;49.834;10.740;2024-01-30T01:07:49;-2.20;99.90
9403;DHT22;4741;49.834;10.740;2024-01-30T01:10:16;-2.40;99.90
9403;DHT22;4741;49.834;10.740;2024-01-30T01:12:44;-3.00;99.90
9403;DHT22;4741;49.834;10.740;2024-01-30T01:15:10;-2.60;99.90
9403;DHT22;4741;49.834;10.740;2024-01-30T01:17:38;-2.50;99.90
9403;DHT22;4741;49.834;10.740;2024-01-30T01:20:05;-2.30;99.90
9403;DHT22;4741;49.834;10.740;2024-01-30T01:22:32;-2.40;99.90
9403;DHT22;4741;49.834;10.740;2024-01-30T01:25:00;-2.40;99.90
9403;DHT22;4741;49.834;10.740;2024-01-30T01:29:54;-2.20;99.90
9403;DHT22;4741;49.834;10.740;2024-01-30T01:32:20;-1.60;99.90
9403;DHT22;4741;49.834;10.740;2024-01-30T01:34:48;-2.50;99.90
9403;DHT22;4741;49.834;10.740;2024-01-30T01:39:42;-2.60;99.90
9403;DHT22;4741;49.834;10.740;2024-01-30T01:44:36;-2.50;99.90
9403;DHT22;4741;49.834;10.740;2024-01-30T01:47:02;-2.50;99.90
9403;DHT22;4741;49.834;10.740;2024-01-30T01:49:29;-2.40;99.90
9403;DHT22;4741;49.834;10.740;2024-01-30T01:51:56;-2.30;99.90
9403;DHT22;4741;49.834;10.740;2024-01-30T01:54:24;-2.40;99.90
9403;DHT22;4741;49.834;10.740;2024-01-30T01:56:52;-2.40;99.90
9403;DHT22;4741;49.834;10.740;2024-01-30T01:59:19;-2.40;99.90
9403;DHT22;4741;49.834;10.740;2024-01-30T02:01:46;-2.40;99.90
9403;DHT22;4741;49.834;10.740;2024-01-30T02:04:16;-2.40;99.90
9403;DHT22;4741;49.834;10.740;2024-01-30T02:06:43;-2.50;99.90
9403;DHT22;4741;49.834;10.740;2024-01-30T02:09:10;-2.40;99.90
9403;DHT22;4741;49.834;10.740;2024-01-30T02:11:36;-2.50;99.90
9403;DHT22;4741;49.834;10.740;2024-01-30T02:14:03;-2.60;99.90
9403;DHT22;4741;49.834;10.740;2024-01-30T02:16:31;-2.60;99.90
9403;DHT22;4741;49.834;10.740;2024-01-30T02:18:58;-2.50;99.90
9403;DHT22;4741;49.834;10.740;2024-01-30T02:21:25;-2.50;99.90
9403;DHT22;4741;49.834;10.740;2024-01-30T02:23:52;-2.60;99.90
9403;DHT22;4741;49.834;10.740;2024-01-30T02:26:18;-2.70;99.90
9403;DHT22;4741;49.834;10.740;2024-01-30T02:28:45;-2.60;99.90
9403;DHT22;4741;49.834;10.740;2024-01-30T02:31:12;-2.60;99.90
9403;DHT22;4741;49.834;10.740;2024-01-30T02:33:39;-2.60;99.90
9403;DHT22;4741;49.834;10.740;2024-01-30T02:36:05;-2.60;99.90
9403;DHT22;4741;49.834;10.740;2024-01-30T02:38:32;-2.50;99.90
9403;DHT22;4741;49.834;10.740;2024-01-30T02:40:59;-2.60;99.90
9403;DHT22;4741;49.834;10.740;2024-01-30T02:43:25;-2.60;99.90
9403;DHT22;4741;49.834;10.740;2024-01-30T02:45:52;-2.60;99.90
9403;DHT22;4741;49.834;10.740;2024-01-30T02:48:19;-2.80;99.90
9403;DHT22;4741;49.834;10.740;2024-01-30T02:50:46;-2.80;99.90
9403;DHT22;4741;49.834;10.740;2024-01-30T02:53:13;-2.70;99.90
9403;DHT22;4741;49.834;10.740;2024-01-30T02:55:40;-2.80;99.90
9403;DHT22;4741;49.834;10.740;2024-01-30T02:58:07;-2.80;99.90
9403;DHT22;4741;49.834;10.740;2024-01-30T03:00:34;-2.80;99.90
9403;DHT22;4741;49.834;10.740;2024-01-30T03:03:00;-2.80;99.90
9403;DHT22;4741;49.834;10.740;2024-01-30T03:05:28;-2.80;99.90
9403;DHT22;4741;49.834;10.740;2024-01-30T03:07:55;-2.80;99.90
9403;DHT22;4741;49.834;10.740;2024-01-30T03:10:22;-2.80;99.90
9403;DHT22;4741;49.834;10.740;2024-01-30T03:12:48;-2.70;99.90
9403;DHT22;4741;49.834;10.740;2024-01-30T03:15:15;-2.80;99.90
9403;DHT22;4741;49.834;10.740;2024-01-30T03:17:42;-2.80;99.90
9403;DHT22;4741;49.834;10.740;2024-01-30T03:20:09;-2.70;99.90
9403;DHT22;4741;49.834;10.740;2024-01-30T03:22:35;-2.70;99.90
9403;DHT22;4741;49.834;10.740;2024-01-30T03:25:02;-2.80;99.90
9403;DHT22;4741;49.834;10.740;2024-01-30T03:27:29;-2.80;99.90
9403;DHT22;4741;49.834;10.740;2024-01-30T03:29:56;-2.70;99.90
9403;DHT22;4741;49.834;10.740;2024-01-30T03:32:23;-2.70;99.90
9403;DHT22;4741;49.834;10.740;2024-01-30T03:34:50;-2.70;99.90
9403;DHT22;4741;49.834;10.740;2024-01-30T03:37:17;-2.70;99.90
9403;DHT22;4741;49.834;10.740;2024-01-30T03:39:43;-2.70;99.90
9403;DHT22;4741;49.834;10.740;2024-01-30T03:42:10;-2.70;99.90
9403;DHT22;4741;49.834;10.740;2024-01-30T03:44:37;-2.70;99.90
9403;DHT22;4741;49.834;10.740;2024-01-30T03:47:03;-2.70;99.90
9403;DHT22;4741;49.834;10.740;2024-01-30T03:49:30;-2.70;99.90
9403;DHT22;4741;49.834;10.740;2024-01-30T03:51:57;-2.80;99.90
9403;DHT22;4741;49.834;10.740;2024-01-30T03:54:24;-2.80;99.90
9403;DHT22;4741;49.834;10.740;2024-01-30T03:56:50;-2.80;99.90
9403;DHT22;4741;49.834;10.740;2024-01-30T03:59:17;-2.90;99.90
9403;DHT22;4741;49.834;10.740;2024-01-30T04:01:48;-3.00;99.90
9403;DHT22;4741;49.834;10.740;2024-01-30T04:04:15;-2.90;99.90
9403;DHT22;4741;49.834;10.740;2024-01-30T04:06:42;-2.90;99.90
9403;DHT22;4741;49.834;10.740;2024-01-30T04:09:09;-2.90;99.90
9403;DHT22;4741;49.834;10.740;2024-01-30T04:11:35;-2.90;99.90
9403;DHT22;4741;49.834;10.740;2024-01-30T04:14:02;-2.80;99.90
9403;DHT22;4741;49.834;10.740;2024-01-30T04:16:29;-3.00;99.90
9403;DHT22;4741;49.834;10.740;2024-01-30T04:18:56;-3.40;99.90
9403;DHT22;4741;49.834;10.740;2024-01-30T04:21:22;-3.20;99.90
9403;DHT22;4741;49.834;10.740;2024-01-30T04:23:50;-3.20;99.90
9403;DHT22;4741;49.834;10.740;2024-01-30T04:26:17;-3.50;99.90
9403;DHT22;4741;49.834;10.740;2024-01-30T04:28:44;-3.10;99.90
9403;DHT22;4741;49.834;10.740;2024-01-30T04:31:11;-3.30;99.90
9403;DHT22;4741;49.834;10.740;2024-01-30T04:33:38;-2.90;99.90
9403;DHT22;4741;49.834;10.740;2024-01-30T04:36:07;-3.10;99.90
9403;DHT22;4741;49.834;10.740;2024-01-30T04:38:35;-2.90;99.90
9403;DHT22;4741;49.834;10.740;2024-01-30T04:41:02;-3.10;99.90
9403;DHT22;4741;49.834;10.740;2024-01-30T04:43:29;-1.50;99.90
9403;DHT22;4741;49.834;10.740;2024-01-30T04:45:55;-3.30;99.90
9403;DHT22;4741;49.834;10.740;2024-01-30T04:48:22;-3.20;99.90
9403;DHT22;4741;49.834;10.740;2024-01-30T04:50:49;-2.90;99.90
9403;DHT22;4741;49.834;10.740;2024-01-30T04:53:16;-3.00;99.90
9403;DHT22;4741;49.834;10.740;2024-01-30T04:55:42;-3.10;99.90
9403;DHT22;4741;49.834;10.740;2024-01-30T04:58:09;-2.90;99.90
9403;DHT22;4741;49.834;10.740;2024-01-30T05:00:36;-3.00;99.90
9403;DHT22;4741;49.834;10.740;2024-01-30T05:03:03;-3.00;99.90
9403;DHT22;4741;49.834;10.740;2024-01-30T05:05:29;-3.10;99.90
9403;DHT22;4741;49.834;10.740;2024-01-30T05:07:56;-3.10;99.90
9403;DHT22;4741;49.834;10.740;2024-01-30T05:10:23;-2.90;99.90
9403;DHT22;4741;49.834;10.740;2024-01-30T05:12:49;-2.80;99.90
9403;DHT22;4741;49.834;10.740;2024-01-30T05:15:16;-2.80;99.90
9403;DHT22;4741;49.834;10.740;2024-01-30T05:17:43;-2.80;99.90
9403;DHT22;4741;49.834;10.740;2024-01-30T05:20:10;-2.70;99.90
9403;DHT22;4741;49.834;10.740;2024-01-30T05:22:37;-2.70;99.90
9403;DHT22;4741;49.834;10.740;2024-01-30T05:25:04;-2.80;99.90
9403;DHT22;4741;49.834;10.740;2024-01-30T05:27:31;-2.70;99.90
9403;DHT22;4741;49.834;10.740;2024-01-30T05:29:58;-2.80;99.90
9403;DHT22;4741;49.834;10.740;2024-01-30T05:32:24;-2.70;99.90
9403;DHT22;4741;49.834;10.740;2024-01-30T05:34:51;-2.60;99.90
9403;DHT22;4741;49.834;10.740;2024-01-30T05:37:18;-2.60;99.90
9403;DHT22;4741;49.834;10.740;2024-01-30T05:39:45;-2.50;99.90
9403;DHT22;4741;49.834;10.740;2024-01-30T05:42:12;-2.60;99.90
9403;DHT22;4741;49.834;10.740;2024-01-30T05:44:38;-2.70;99.90
9403;DHT22;4741;49.834;10.740;2024-01-30T05:47:05;-2.60;99.90
9403;DHT22;4741;49.834;10.740;2024-01-30T05:49:32;-2.60;99.90
9403;DHT22;4741;49.834;10.740;2024-01-30T05:51:59;-2.70;99.90
9403;DHT22;4741;49.834;10.740;2024-01-30T05:54:26;-2.50;99.90
9403;DHT22;4741;49.834;10.740;2024-01-30T05:56:53;-2.50;99.90
9403;DHT22;4741;49.834;10.740;2024-01-30T05:59:19;-2.50;99.90
9403;DHT22;4741;49.834;10.740;2024-01-30T06:01:46;-2.50;99.90
9403;DHT22;4741;49.834;10.740;2024-01-30T06:04:14;-2.40;99.90
9403;DHT22;4741;49.834;10.740;2024-01-30T06:06:41;-2.40;99.90
9403;DHT22;4741;49.834;10.740;2024-01-30T06:09:08;-2.50;99.90
9403;DHT22;4741;49.834;10.740;2024-01-30T06:11:35;-2.70;99.90
9403;DHT22;4741;49.834;10.740;2024-01-30T06:14:02;-2.60;99.90
9403;DHT22;4741;49.834;10.740;2024-01-30T06:16:29;-2.70;99.90
9403;DHT22;4741;49.834;10.740;2024-01-30T06:18:56;-2.70;99.90
9403;DHT22;4741;49.834;10.740;2024-01-30T06:21:23;-2.70;99.90
9403;DHT22;4741;49.834;10.740;2024-01-30T06:23:50;-2.60;99.90
9403;DHT22;4741;49.834;10.740;2024-01-30T06:26:16;-2.70;99.90
9403;DHT22;4741;49.834;10.740;2024-01-30T06:28:43;-2.60;99.90
9403;DHT22;4741;49.834;10.740;2024-01-30T06:31:10;-2.60;99.90
9403;DHT22;4741;49.834;10.740;2024-01-30T06:33:37;-2.60;99.90
9403;DHT22;4741;49.834;10.740;2024-01-30T06:36:04;-2.50;99.90
9403;DHT22;4741;49.834;10.740;2024-01-30T06:38:31;-2.40;99.90
9403;DHT22;4741;49.834;10.740;2024-01-30T06:40:58;-2.40;99.90
9403;DHT22;4741;49.834;10.740;2024-01-30T06:43:25;-2.30;99.90
9403;DHT22;4741;49.834;10.740;2024-01-30T06:45:51;-2.30;99.90
9403;DHT22;4741;49.834;10.740;2024-01-30T06:48:18;-2.40;99.90
9403;DHT22;4741;49.834;10.740;2024-01-30T06:50:45;-2.50;99.90
9403;DHT22;4741;49.834;10.740;2024-01-30T06:53:12;-2.40;99.90
9403;DHT22;4741;49.834;10.740;2024-01-30T06:55:39;-1.50;99.90
9403;DHT22;4741;49.834;10.740;2024-01-30T06:58:06;-2.30;99.90
9403;DHT22;4741;49.834;10.740;2024-01-30T07:00:33;-2.40;99.90
9403;DHT22;4741;49.834;10.740;2024-01-30T07:03:00;-2.40;99.90
9403;DHT22;4741;49.834;10.740;2024-01-30T07:05:26;-2.40;99.90
9403;DHT22;4741;49.834;10.740;2024-01-30T07:07:53;-2.40;99.90
9403;DHT22;4741;49.834;10.740;2024-01-30T07:10:20;-2.40;99.90
9403;DHT22;4741;49.834;10.740;2024-01-30T07:15:14;-2.10;99.90
9403;DHT22;4741;49.834;10.740;2024-01-30T07:17:43;-2.00;99.90
9403;DHT22;4741;49.834;10.740;2024-01-30T07:20:10;-1.90;99.90
9403;DHT22;4741;49.834;10.740;2024-01-30T07:22:43;-2.00;99.90
9403;DHT22;4741;49.834;10.740;2024-01-30T07:25:10;-2.00;99.90
9403;DHT22;4741;49.834;10.740;2024-01-30T07:27:37;-2.10;99.90
9403;DHT22;4741;49.834;10.740;2024-01-30T07:30:04;-2.20;99.90
9403;DHT22;4741;49.834;10.740;2024-01-30T07:32:31;-1.90;99.90
9403;DHT22;4741;49.834;10.740;2024-01-30T07:34:58;-1.80;99.90
9403;DHT22;4741;49.834;10.740;2024-01-30T07:37:34;-1.80;99.90
9403;DHT22;4741;49.834;10.740;2024-01-30T07:40:02;-1.90;99.90
9403;DHT22;4741;49.834;10.740;2024-01-30T07:42:29;-1.70;99.90
9403;DHT22;4741;49.834;10.740;2024-01-30T07:44:56;-1.90;99.90
9403;DHT22;4741;49.834;10.740;2024-01-30T07:47:23;-1.90;99.90
9403;DHT22;4741;49.834;10.740;2024-01-30T07:49:50;-1.80;99.90
9403;DHT22;4741;49.834;10.740;2024-01-30T07:52:17;-1.60;99.90
9403;DHT22;4741;49.834;10.740;2024-01-30T07:54:44;-1.50;99.90
9403;DHT22;4741;49.834;10.740;2024-01-30T07:57:10;-1.60;99.90
9403;DHT22;4741;49.834;10.740;2024-01-30T07:59:37;-0.50;99.90
9403;DHT22;4741;49.834;10.740;2024-01-30T08:06:58;-1.10;99.90
9403;DHT22;4741;49.834;10.740;2024-01-30T08:09:25;-1.10;99.90
9403;DHT22;4741;49.834;10.740;2024-01-30T08:11:52;-1.10;99.90
9403;DHT22;4741;49.834;10.740;2024-01-30T08:14:19;-1.00;99.90
9403;DHT22;4741;49.834;10.740;2024-01-30T08:16:45;-1.00;99.90
9403;DHT22;4741;49.834;10.740;2024-01-30T08:19:12;-0.90;99.90
9403;DHT22;4741;49.834;10.740;2024-01-30T08:21:39;-0.90;99.90
9403;DHT22;4741;49.834;10.740;2024-01-30T08:24:06;-0.60;99.90
9403;DHT22;4741;49.834;10.740;2024-01-30T08:26:33;-0.60;99.90
9403;DHT22;4741;49.834;10.740;2024-01-30T08:29:01;-0.70;99.90
9403;DHT22;4741;49.834;10.740;2024-01-30T08:31:28;-0.60;99.90
9403;DHT22;4741;49.834;10.740;2024-01-30T08:33:55;-0.60;99.90
9403;DHT22;4741;49.834;10.740;2024-01-30T08:36:22;-0.60;99.90
9403;DHT22;4741;49.834;10.740;2024-01-30T08:38:49;-0.50;99.90
9403;DHT22;4741;49.834;10.740;2024-01-30T08:41:15;-0.50;99.90
9403;DHT22;4741;49.834;10.740;2024-01-30T08:43:42;-0.40;99.90
9403;DHT22;4741;49.834;10.740;2024-01-30T08:46:11;-0.40;99.90
9403;DHT22;4741;49.834;10.740;2024-01-30T08:48:38;-0.30;99.90
9403;DHT22;4741;49.834;10.740;2024-01-30T08:51:04;-0.20;99.90
9403;DHT22;4741;49.834;10.740;2024-01-30T08:53:35;-0.20;99.90
9403;DHT22;4741;49.834;10.740;2024-01-30T08:56:02;-0.10;99.90
9403;DHT22;4741;49.834;10.740;2024-01-30T08:58:29;0.60;99.90
9403;DHT22;4741;49.834;10.740;2024-01-30T09:00:56;0.00;99.90
9403;DHT22;4741;49.834;10.740;2024-01-30T09:03:23;0.00;99.90
9403;DHT22;4741;49.834;10.740;2024-01-30T09:05:50;0.00;99.90
9403;DHT22;4741;49.834;10.740;2024-01-30T09:08:17;-0.10;99.90
9403;DHT22;4741;49.834;10.740;2024-01-30T09:10:44;0.00;99.90
9403;DHT22;4741;49.834;10.740;2024-01-30T09:13:11;0.10;99.90
9403;DHT22;4741;49.834;10.740;2024-01-30T09:15:38;0.20;99.90
9403;DHT22;4741;49.834;10.740;2024-01-30T09:18:05;0.20;99.90
9403;DHT22;4741;49.834;10.740;2024-01-30T09:20:32;0.30;99.90
9403;DHT22;4741;49.834;10.740;2024-01-30T09:23:00;0.30;99.90
9403;DHT22;4741;49.834;10.740;2024-01-30T09:25:27;0.50;99.90
9403;DHT22;4741;49.834;10.740;2024-01-30T09:27:54;0.50;99.90
9403;DHT22;4741;49.834;10.740;2024-01-30T09:30:21;0.50;99.90
9403;DHT22;4741;49.834;10.740;2024-01-30T09:32:47;0.50;99.90
9403;DHT22;4741;49.834;10.740;2024-01-30T09:35:14;0.60;99.90
9403;DHT22;4741;49.834;10.740;2024-01-30T09:37:41;0.60;99.90
9403;DHT22;4741;49.834;10.740;2024-01-30T09:40:08;0.80;99.90
9403;DHT22;4741;49.834;10.740;2024-01-30T09:42:36;0.90;99.90
9403;DHT22;4741;49.834;10.740;2024-01-30T09:45:05;1.00;99.90
9403;DHT22;4741;49.834;10.740;2024-01-30T09:49:59;1.20;99.90
9403;DHT22;4741;49.834;10.740;2024-01-30T09:52:27;1.20;99.90
9403;DHT22;4741;49.834;10.740;2024-01-30T09:54:54;1.40;99.90
9403;DHT22;4741;49.834;10.740;2024-01-30T09:57:21;1.40;99.90
9403;DHT22;4741;49.834;10.740;2024-01-30T09:59:47;1.50;99.90
9403;DHT22;4741;49.834;10.740;2024-01-30T10:02:14;1.70;99.90
9403;DHT22;4741;49.834;10.740;2024-01-30T10:04:42;1.90;99.90
9403;DHT22;4741;49.834;10.740;2024-01-30T10:07:09;1.80;99.90
9403;DHT22;4741;49.834;10.740;2024-01-30T10:09:36;1.70;99.90
9403;DHT22;4741;49.834;10.740;2024-01-30T10:12:03;2.10;99.90
9403;DHT22;4741;49.834;10.740;2024-01-30T10:14:30;2.40;99.90
9403;DHT22;4741;49.834;10.740;2024-01-30T10:16:57;2.20;99.90
9403;DHT22;4741;49.834;10.740;2024-01-30T10:19:24;2.10;99.90
9403;DHT22;4741;49.834;10.740;2024-01-30T10:21:51;3.10;99.90
9403;DHT22;4741;49.834;10.740;2024-01-30T10:26:45;2.80;99.90
9403;DHT22;4741;49.834;10.740;2024-01-30T10:31:39;3.30;99.90
9403;DHT22;4741;49.834;10.740;2024-01-30T10:34:06;4.00;99.90
9403;DHT22;4741;49.834;10.740;2024-01-30T10:36:46;3.30;99.90
9403;DHT22;4741;49.834;10.740;2024-01-30T10:39:13;3.20;99.90
9403;DHT22;4741;49.834;10.740;2024-01-30T10:41:44;3.10;99.90
9403;DHT22;4741;49.834;10.740;2024-01-30T10:44:13;3.40;99.90
9403;DHT22;4741;49.834;10.740;2024-01-30T10:46:42;3.60;99.90
9403;DHT22;4741;49.834;10.740;2024-01-30T10:49:09;3.70;99.90
9403;DHT22;4741;49.834;10.740;2024-01-30T10:51:36;4.00;99.90
9403;DHT22;4741;49.834;10.740;2024-01-30T10:54:05;4.00;99.90
9403;DHT22;4741;49.834;10.740;2024-01-30T10:56:32;4.10;99.90
9403;DHT22;4741;49.834;10.740;2024-01-30T10:58:59;5.60;99.90
9403;DHT22;4741;49.834;10.740;2024-01-30T11:01:26;4.50;99.90
9403;DHT22;4741;49.834;10.740;2024-01-30T11:03:53;4.60;99.90
9403;DHT22;4741;49.834;10.740;2024-01-30T11:06:24;6.00;99.90
9403;DHT22;4741;49.834;10.740;2024-01-30T11:09:02;4.90;99.90
9403;DHT22;4741;49.834;10.740;2024-01-30T11:14:22;5.10;99.90
9403;DHT22;4741;49.834;10.740;2024-01-30T11:21:43;5.50;99.90
9403;DHT22;4741;49.834;10.740;2024-01-30T11:24:10;5.60;99.90
9403;DHT22;4741;49.834;10.740;2024-01-30T11:26:39;5.80;99.90
9403;DHT22;4741;49.834;10.740;2024-01-30T11:29:08;5.80;99.90
9403;DHT22;4741;49.834;10.740;2024-01-30T11:31:36;5.90;99.90
9403;DHT22;4741;49.834;10.740;2024-01-30T11:34:03;6.20;99.90
9403;DHT22;4741;49.834;10.740;2024-01-30T11:36:30;6.10;99.90
9403;DHT22;4741;49.834;10.740;2024-01-30T11:38:58;7.40;99.90
9403;DHT22;4741;49.834;10.740;2024-01-30T11:41:25;6.30;99.90
9403;DHT22;4741;49.834;10.740;2024-01-30T11:43:52;7.10;99.90
9403;DHT22;4741;49.834;10.740;2024-01-30T11:46:20;7.70;99.90
9403;DHT22;4741;49.834;10.740;2024-01-30T11:48:46;6.50;99.90
9403;DHT22;4741;49.834;10.740;2024-01-30T11:51:13;6.30;99.90
9403;DHT22;4741;49.834;10.740;2024-01-30T11:53:41;6.50;99.90
9403;DHT22;4741;49.834;10.740;2024-01-30T11:56:08;6.60;99.90
9403;DHT22;4741;49.834;10.740;2024-01-30T12:01:02;7.10;99.90
9403;DHT22;4741;49.834;10.740;2024-01-30T12:32:56;8.60;99.90
9403;DHT22;4741;49.834;10.740;2024-01-30T12:40:20;8.60;99.90
9403;DHT22;4741;49.834;10.740;2024-01-30T12:42:47;8.50;99.90
9403;DHT22;4741;49.834;10.740;2024-01-30T12:45:17;8.00;99.90
9403;DHT22;4741;49.834;10.740;2024-01-30T12:47:49;8.00;99.90
9403;DHT22;4741;49.834;10.740;2024-01-30T12:50:16;7.60;99.90
9403;DHT22;4741;49.834;10.740;2024-01-30T12:52:44;7.50;99.90
9403;DHT22;4741;49.834;10.740;2024-01-30T12:55:15;7.50;99.90
9403;DHT22;4741;49.834;10.740;2024-01-30T12:57:42;7.90;99.90
9403;DHT22;4741;49.834;10.740;2024-01-30T13:00:09;7.30;99.90
9403;DHT22;4741;49.834;10.740;2024-01-30T13:02:36;7.40;99.90
9403;DHT22;4741;49.834;10.740;2024-01-30T13:05:03;7.40;99.90
9403;DHT22;4741;49.834;10.740;2024-01-30T13:07:31;8.00;99.90
9403;DHT22;4741;49.834;10.740;2024-01-30T13:09:58;9.00;99.90
9403;DHT22;4741;49.834;10.740;2024-01-30T13:17:27;10.00;99.90
9403;DHT22;4741;49.834;10.740;2024-01-30T13:19:54;11.80;99.90
9403;DHT22;4741;49.834;10.740;2024-01-30T13:22:27;9.10;99.90
9403;DHT22;4741;49.834;10.740;2024-01-30T13:24:54;10.30;99.90
9403;DHT22;4741;49.834;10.740;2024-01-30T13:27:21;8.60;99.90
9403;DHT22;4741;49.834;10.740;2024-01-30T13:29:48;8.90;99.90
9403;DHT22;4741;49.834;10.740;2024-01-30T13:32:14;9.10;99.90
9403;DHT22;4741;49.834;10.740;2024-01-30T13:37:09;8.30;99.90
9403;DHT22;4741;49.834;10.740;2024-01-30T13:39:37;7.90;99.90
9403;DHT22;4741;49.834;10.740;2024-01-30T13:42:05;8.00;99.90
9403;DHT22;4741;49.834;10.740;2024-01-30T13:44:32;9.80;99.90
9403;DHT22;4741;49.834;10.740;2024-01-30T13:46:59;10.10;99.90
9403;DHT22;4741;49.834;10.740;2024-01-30T13:49:26;9.00;99.90
9403;DHT22;4741;49.834;10.740;2024-01-30T13:51:55;10.60;99.90
9403;DHT22;4741;49.834;10.740;2024-01-30T13:54:23;10.70;99.90
9403;DHT22;4741;49.834;10.740;2024-01-30T13:56:50;10.00;99.90
9403;DHT22;4741;49.834;10.740;2024-01-30T13:59:17;9.10;99.90
9403;DHT22;4741;49.834;10.740;2024-01-30T14:01:50;8.40;99.90
9403;DHT22;4741;49.834;10.740;2024-01-30T14:04:17;8.20;99.90
9403;DHT22;4741;49.834;10.740;2024-01-30T14:06:44;8.10;99.90
9403;DHT22;4741;49.834;10.740;2024-01-30T14:09:22;8.90;99.90
9403;DHT22;4741;49.834;10.740;2024-01-30T14:11:49;8.10;99.90
9403;DHT22;4741;49.834;10.740;2024-01-30T14:14:16;8.30;99.90
9403;DHT22;4741;49.834;10.740;2024-01-30T14:16:42;9.00;99.90
9403;DHT22;4741;49.834;10.740;2024-01-30T14:19:09;8.40;99.90
9403;DHT22;4741;49.834;10.740;2024-01-30T14:21:36;7.70;99.90
9403;DHT22;4741;49.834;10.740;2024-01-30T14:24:03;8.30;99.90
9403;DHT22;4741;49.834;10.740;2024-01-30T14:26:30;7.30;99.90
9403;DHT22;4741;49.834;10.740;2024-01-30T14:28:57;7.20;99.90
9403;DHT22;4741;49.834;10.740;2024-01-30T14:31:24;7.00;99.90
9403;DHT22;4741;49.834;10.740;2024-01-30T14:33:51;7.60;99.90
9403;DHT22;4741;49.834;10.740;2024-01-30T14:36:18;6.90;99.90
9403;DHT22;4741;49.834;10.740;2024-01-30T14:38:44;6.80;99.90
9403;DHT22;4741;49.834;10.740;2024-01-30T14:41:12;7.50;99.90
9403;DHT22;4741;49.834;10.740;2024-01-30T14:43:39;6.70;99.90
9403;DHT22;4741;49.834;10.740;2024-01-30T14:46:06;6.60;99.90
9403;DHT22;4741;49.834;10.740;2024-01-30T14:48:33;6.60;99.90
9403;DHT22;4741;49.834;10.740;2024-01-30T14:51:00;6.70;99.90
9403;DHT22;4741;49.834;10.740;2024-01-30T14:53:27;7.00;99.90
9403;DHT22;4741;49.834;10.740;2024-01-30T14:55:54;6.80;99.90
9403;DHT22;4741;49.834;10.740;2024-01-30T14:58:20;6.70;99.90
9403;DHT22;4741;49.834;10.740;2024-01-30T15:00:47;6.50;99.90
9403;DHT22;4741;49.834;10.740;2024-01-30T15:03:14;6.40;99.90
9403;DHT22;4741;49.834;10.740;2024-01-30T15:05:41;6.40;99.90
9403;DHT22;4741;49.834;10.740;2024-01-30T15:08:08;6.90;99.90
9403;DHT22;4741;49.834;10.740;2024-01-30T15:10:34;6.90;99.90
9403;DHT22;4741;49.834;10.740;2024-01-30T15:13:01;6.30;99.90
9403;DHT22;4741;49.834;10.740;2024-01-30T15:15:28;6.30;99.90
9403;DHT22;4741;49.834;10.740;2024-01-30T15:17:57;7.00;99.90
9403;DHT22;4741;49.834;10.740;2024-01-30T15:20:25;6.90;99.90
9403;DHT22;4741;49.834;10.740;2024-01-30T15:22:52;6.10;99.90
9403;DHT22;4741;49.834;10.740;2024-01-30T15:25:18;6.30;99.90
9403;DHT22;4741;49.834;10.740;2024-01-30T15:27:45;6.40;99.90
9403;DHT22;4741;49.834;10.740;2024-01-30T15:30:12;6.00;99.90
9403;DHT22;4741;49.834;10.740;2024-01-30T15:32:39;5.90;99.90
9403;DHT22;4741;49.834;10.740;2024-01-30T15:35:06;5.90;99.90
9403;DHT22;4741;49.834;10.740;2024-01-30T15:37:33;5.90;99.90
9403;DHT22;4741;49.834;10.740;2024-01-30T15:40:00;5.70;99.90
9403;DHT22;4741;49.834;10.740;2024-01-30T15:42:28;5.70;99.90
9403;DHT22;4741;49.834;10.740;2024-01-30T15:44:54;5.70;99.90
9403;DHT22;4741;49.834;10.740;2024-01-30T15:47:21;5.70;99.90
9403;DHT22;4741;49.834;10.740;2024-01-30T15:49:48;5.80;99.90
9403;DHT22;4741;49.834;10.740;2024-01-30T15:52:14;5.60;99.90
9403;DHT22;4741;49.834;10.740;2024-01-30T15:54:44;5.60;99.90
9403;DHT22;4741;49.834;10.740;2024-01-30T15:57:10;5.60;99.90
9403;DHT22;4741;49.834;10.740;2024-01-30T15:59:37;5.50;99.90
9403;DHT22;4741;49.834;10.740;2024-01-30T16:02:04;5.90;99.90
9403;DHT22;4741;49.834;10.740;2024-01-30T16:04:32;5.40;99.90
9403;DHT22;4741;49.834;10.740;2024-01-30T16:06:59;5.30;99.90
9403;DHT22;4741;49.834;10.740;2024-01-30T16:09:26;5.30;99.90
9403;DHT22;4741;49.834;10.740;2024-01-30T16:11:52;5.90;99.90
9403;DHT22;4741;49.834;10.740;2024-01-30T16:14:19;4.70;99.90
9403;DHT22;4741;49.834;10.740;2024-01-30T16:16:46;4.70;99.90
9403;DHT22;4741;49.834;10.740;2024-01-30T16:19:12;4.60;99.90
9403;DHT22;4741;49.834;10.740;2024-01-30T16:21:39;4.50;99.90
9403;DHT22;4741;49.834;10.740;2024-01-30T16:24:10;4.50;99.90
9403;DHT22;4741;49.834;10.740;2024-01-30T16:26:36;4.40;99.90
9403;DHT22;4741;49.834;10.740;2024-01-30T16:29:03;4.30;99.90
9403;DHT22;4741;49.834;10.740;2024-01-30T16:31:30;4.00;99.90
9403;DHT22;4741;49.834;10.740;2024-01-30T16:33:57;4.20;99.90
9403;DHT22;4741;49.834;10.740;2024-01-30T16:36:26;3.80;99.90
9403;DHT22;4741;49.834;10.740;2024-01-30T16:38:53;3.80;99.90
9403;DHT22;4741;49.834;10.740;2024-01-30T16:41:20;4.00;99.90
9403;DHT22;4741;49.834;10.740;2024-01-30T16:43:47;3.90;99.90
9403;DHT22;4741;49.834;10.740;2024-01-30T16:46:14;3.90;99.90
9403;DHT22;4741;49.834;10.740;2024-01-30T16:48:41;3.90;99.90
9403;DHT22;4741;49.834;10.740;2024-01-30T16:51:08;3.90;99.90
9403;DHT22;4741;49.834;10.740;2024-01-30T16:53:35;3.90;99.90
9403;DHT22;4741;49.834;10.740;2024-01-30T16:56:02;3.80;99.90
9403;DHT22;4741;49.834;10.740;2024-01-30T16:58:29;3.80;99.90
9403;DHT22;4741;49.834;10.740;2024-01-30T17:00:56;3.70;99.90
9403;DHT22;4741;49.834;10.740;2024-01-30T17:03:24;3.50;99.90
9403;DHT22;4741;49.834;10.740;2024-01-30T17:05:51;4.70;99.90
9403;DHT22;4741;49.834;10.740;2024-01-30T17:08:21;3.00;99.90
9403;DHT22;4741;49.834;10.740;2024-01-30T17:10:47;3.10;99.90